KMMT/MMT METAR and TAF weather

Enter ICAO airport designator
Station Type Date Time Source
KMMT METAR 2022/01/28 23:56 UTC NOAA

KMMT 282356Z AUTO 00000KT 10SM OVC100 06/M05 A2985 RMK AO2 SLP113 T00551049 10074 20051 56007


Station Type Date Time Source
KMMT Decoded METAR 2022/01/28 23:56 UTC NOAA

McEntire Air National Guard Weather Facility Base, SC, United States (KMMT) 33-55N 080-48W
Jan 28, 2022 - 06:56 PM EST / 2022.01.28 2356 UTC
Wind: Calm:0
Visibility: 10 mile(s):0
Sky conditions: overcast
Temperature: 41.9 F (5.5 C)
Dew Point: 23.2 F (-4.9 C)
Relative Humidity: 47%
Pressure (altimeter): 29.85 in. Hg (1010 hPa)
Pressure tendency: 0.02 inches (0.7 hPa) lower than three hours ago
ob: KMMT 282356Z AUTO 00000KT 10SM OVC100 06/M05 A2985 RMK AO2 SLP113 T00551049 10074 20051 56007
cycle: 0

Station Type Date Time Source
KMMT TAF 2022/01/29 00:09 UTC NOAA

TAF KMMT 290000Z 2900/3006 VRB06KT 9999 SCT080 QNH2985INS
BECMG 2914/2915 32020G30KT 9999 SKC 510023 QNH3005INS
BECMG 2923/2924 31006KT 9999 SKC 510023 QNH3010INS TX07/2904Z TNM03/2906Z

Example: see airport list